AEE218 LIPH-LGTS
Flight info
| Callsign | AEE218 |
|---|---|
| Flight time | 1h 32m |
| Altitude | 37000 |
| Route | INBUT DCT LABIN DCT SAL DCT VAKSU DCT PETAK DCT PINDO UM603 EDASI |
| Aircraft | A320/M-SDE3FGHIRWY/LB1 |
Departure
| Time | 2026-05-06 10:20 |
|---|---|
| Airport | Treviso Airport (LIPH) |
Arrival
| Time | 2026-05-06 11:52 |
|---|---|
| Airport | Thessaloniki Macedonia International Airport (LGTS) |
| Time | Latitude | Longitude | Altitude | Speed | Heading |
|---|---|---|---|---|---|
| 2026-05-06 10:06 | 45.65386 | 12.20428 | 55 ft | 0 kts | 338° |
| 2026-05-06 10:13 | 45.65366 | 12.20440 | 60 ft | 4 kts | 329° |
| 2026-05-06 10:13 | 45.65350 | 12.20453 | 58 ft | 4 kts | 356° |
| 2026-05-06 10:14 | 45.65341 | 12.20448 | 59 ft | 3 kts | 7° |
| 2026-05-06 10:14 | 45.65320 | 12.20443 | 56 ft | 4 kts | 37° |
| 2026-05-06 10:14 | 45.65309 | 12.20415 | 57 ft | 4 kts | 81° |
| 2026-05-06 10:14 | 45.65305 | 12.20389 | 59 ft | 1 kts | 69° |
| 2026-05-06 10:15 | 45.65304 | 12.20385 | 58 ft | 0 kts | 69° |
| 2026-05-06 10:17 | 45.65318 | 12.20440 | 57 ft | 12 kts | 69° |
| 2026-05-06 10:17 | 45.65350 | 12.20562 | 55 ft | 14 kts | 69° |
| 2026-05-06 10:17 | 45.65380 | 12.20675 | 58 ft | 8 kts | 76° |
| 2026-05-06 10:18 | 45.65349 | 12.20736 | 58 ft | 9 kts | 150° |
| 2026-05-06 10:18 | 45.65283 | 12.20777 | 57 ft | 11 kts | 157° |
| 2026-05-06 10:18 | 45.65224 | 12.20793 | 55 ft | 7 kts | 220° |
| 2026-05-06 10:18 | 45.65212 | 12.20766 | 60 ft | 0 kts | 243° |
| 2026-05-06 10:19 | 45.65209 | 12.20758 | 60 ft | 2 kts | 245° |
| 2026-05-06 10:19 | 45.65159 | 12.20581 | 56 ft | 52 kts | 249° |
| 2026-05-06 10:19 | 45.64943 | 12.19796 | 55 ft | 114 kts | 248° |
| 2026-05-06 10:19 | 45.64614 | 12.18517 | 101 ft | 156 kts | 252° |
| 2026-05-06 10:20 | 45.64302 | 12.17036 | 633 ft | 158 kts | 256° |
| 2026-05-06 10:20 | 45.63943 | 12.15523 | 1207 ft | 161 kts | 246° |
| 2026-05-06 10:20 | 45.63476 | 12.14066 | 1802 ft | 163 kts | 243° |
| 2026-05-06 10:20 | 45.62964 | 12.12530 | 2097 ft | 182 kts | 243° |
| 2026-05-06 10:21 | 45.62382 | 12.10779 | 2348 ft | 204 kts | 243° |
| 2026-05-06 10:21 | 45.61754 | 12.08876 | 2563 ft | 225 kts | 243° |
| 2026-05-06 10:21 | 45.61046 | 12.06766 | 2877 ft | 247 kts | 243° |
| 2026-05-06 10:21 | 45.60271 | 12.04457 | 3378 ft | 265 kts | 242° |
| 2026-05-06 10:22 | 45.59472 | 12.02052 | 4228 ft | 270 kts | 243° |
| 2026-05-06 10:22 | 45.58674 | 11.99621 | 5160 ft | 271 kts | 243° |
| 2026-05-06 10:22 | 45.57874 | 11.97178 | 6086 ft | 271 kts | 243° |
| 2026-05-06 10:22 | 45.57073 | 11.94732 | 6989 ft | 272 kts | 243° |
| 2026-05-06 10:23 | 45.56272 | 11.92280 | 7885 ft | 273 kts | 243° |
| 2026-05-06 10:23 | 45.55469 | 11.89820 | 8790 ft | 274 kts | 243° |
| 2026-05-06 10:23 | 45.54663 | 11.87358 | 9675 ft | 274 kts | 243° |
| 2026-05-06 10:23 | 45.53746 | 11.84995 | 10475 ft | 274 kts | 231° |
| 2026-05-06 10:24 | 45.52267 | 11.83140 | 10696 ft | 296 kts | 209° |
| 2026-05-06 10:24 | 45.50254 | 11.82289 | 10852 ft | 321 kts | 185° |
| 2026-05-06 10:24 | 45.48003 | 11.82840 | 11268 ft | 340 kts | 160° |
| 2026-05-06 10:24 | 45.46049 | 11.84826 | 11871 ft | 354 kts | 137° |
| 2026-05-06 10:25 | 45.44411 | 11.87473 | 12545 ft | 357 kts | 136° |
| 2026-05-06 10:25 | 45.42722 | 11.90076 | 13220 ft | 359 kts | 138° |
| 2026-05-06 10:25 | 45.40883 | 11.92456 | 13858 ft | 358 kts | 145° |
| 2026-05-06 10:25 | 45.39152 | 11.95062 | 14429 ft | 370 kts | 129° |
| 2026-05-06 10:26 | 45.37910 | 11.98316 | 15019 ft | 378 kts | 118° |
| 2026-05-06 10:26 | 45.36946 | 12.01819 | 15588 ft | 382 kts | 115° |
| 2026-05-06 10:26 | 45.36043 | 12.05382 | 16141 ft | 384 kts | 115° |
| 2026-05-06 10:26 | 45.35074 | 12.08927 | 16674 ft | 385 kts | 117° |
| 2026-05-06 10:27 | 45.33999 | 12.12419 | 17248 ft | 386 kts | 120° |
| 2026-05-06 10:27 | 45.32828 | 12.15859 | 17811 ft | 387 kts | 122° |
| 2026-05-06 10:27 | 45.31592 | 12.19269 | 18350 ft | 390 kts | 122° |
| 2026-05-06 10:27 | 45.30317 | 12.22697 | 18807 ft | 393 kts | 123° |
| 2026-05-06 10:28 | 45.29029 | 12.26144 | 19331 ft | 397 kts | 123° |
| 2026-05-06 10:28 | 45.27734 | 12.29634 | 19869 ft | 401 kts | 123° |
| 2026-05-06 10:28 | 45.26439 | 12.33166 | 20357 ft | 405 kts | 122° |
| 2026-05-06 10:28 | 45.25156 | 12.36695 | 20791 ft | 409 kts | 122° |
| 2026-05-06 10:29 | 45.23855 | 12.40297 | 21214 ft | 412 kts | 122° |
| 2026-05-06 10:29 | 45.22541 | 12.43931 | 21648 ft | 415 kts | 122° |
| 2026-05-06 10:29 | 45.21217 | 12.47588 | 22061 ft | 418 kts | 122° |
| 2026-05-06 10:29 | 45.19883 | 12.51265 | 22480 ft | 421 kts | 122° |
| 2026-05-06 10:30 | 45.18536 | 12.54969 | 22902 ft | 424 kts | 122° |
| 2026-05-06 10:30 | 45.17177 | 12.58695 | 23322 ft | 427 kts | 122° |
| 2026-05-06 10:30 | 45.15806 | 12.62443 | 23701 ft | 430 kts | 122° |
| 2026-05-06 10:30 | 45.14891 | 12.64934 | 23939 ft | 431 kts | 122° |
| 2026-05-06 10:31 | 45.13501 | 12.68715 | 24279 ft | 434 kts | 122° |
| 2026-05-06 10:31 | 45.12101 | 12.72524 | 24611 ft | 437 kts | 122° |
| 2026-05-06 10:31 | 45.10696 | 12.76355 | 24924 ft | 440 kts | 122° |
| 2026-05-06 10:31 | 45.08819 | 12.81469 | 25334 ft | 444 kts | 122° |
| 2026-05-06 10:32 | 45.07388 | 12.85354 | 25657 ft | 447 kts | 122° |
| 2026-05-06 10:32 | 45.06433 | 12.87947 | 25874 ft | 448 kts | 122° |
| 2026-05-06 10:32 | 45.04986 | 12.91874 | 26206 ft | 451 kts | 122° |
| 2026-05-06 10:32 | 45.03528 | 12.95814 | 26538 ft | 454 kts | 123° |
| 2026-05-06 10:33 | 45.02055 | 12.99773 | 26865 ft | 456 kts | 123° |
| 2026-05-06 10:33 | 45.00571 | 13.03755 | 27175 ft | 459 kts | 123° |
| 2026-05-06 10:33 | 44.99082 | 13.07759 | 27505 ft | 462 kts | 123° |
| 2026-05-06 10:33 | 44.97388 | 13.11610 | 27815 ft | 461 kts | 129° |
| 2026-05-06 10:34 | 44.95566 | 13.15371 | 28089 ft | 464 kts | 129° |
| 2026-05-06 10:34 | 44.93734 | 13.19127 | 28442 ft | 465 kts | 130° |
| 2026-05-06 10:34 | 44.91894 | 13.22884 | 28915 ft | 464 kts | 130° |
| 2026-05-06 10:34 | 44.90056 | 13.26627 | 29374 ft | 464 kts | 130° |
| 2026-05-06 10:35 | 44.88221 | 13.30360 | 29829 ft | 463 kts | 130° |
| 2026-05-06 10:35 | 44.86384 | 13.34100 | 30241 ft | 463 kts | 130° |
| 2026-05-06 10:35 | 44.84573 | 13.37782 | 30627 ft | 463 kts | 130° |
| 2026-05-06 10:35 | 44.82742 | 13.41504 | 31018 ft | 462 kts | 130° |
| 2026-05-06 10:36 | 44.80905 | 13.45231 | 31380 ft | 463 kts | 130° |
| 2026-05-06 10:36 | 44.79067 | 13.48954 | 31751 ft | 463 kts | 130° |
| 2026-05-06 10:36 | 44.77227 | 13.52681 | 32133 ft | 463 kts | 130° |
| 2026-05-06 10:36 | 44.75393 | 13.56398 | 32555 ft | 462 kts | 131° |
| 2026-05-06 10:37 | 44.73563 | 13.60102 | 32988 ft | 460 kts | 131° |
| 2026-05-06 10:37 | 44.71738 | 13.63790 | 33409 ft | 459 kts | 131° |
| 2026-05-06 10:37 | 44.69909 | 13.67470 | 33823 ft | 459 kts | 131° |
| 2026-05-06 10:37 | 44.68080 | 13.71139 | 34196 ft | 458 kts | 131° |
| 2026-05-06 10:38 | 44.66253 | 13.74802 | 34505 ft | 458 kts | 131° |
| 2026-05-06 10:38 | 44.64424 | 13.78471 | 34796 ft | 458 kts | 131° |
| 2026-05-06 10:38 | 44.62623 | 13.82083 | 35098 ft | 458 kts | 131° |
| 2026-05-06 10:38 | 44.60794 | 13.85745 | 35495 ft | 457 kts | 131° |
| 2026-05-06 10:39 | 44.58971 | 13.89392 | 35938 ft | 456 kts | 131° |
| 2026-05-06 10:39 | 44.57153 | 13.93026 | 36284 ft | 454 kts | 131° |
| 2026-05-06 10:39 | 44.55337 | 13.96652 | 36632 ft | 453 kts | 131° |
| 2026-05-06 10:39 | 44.53522 | 14.00270 | 36927 ft | 453 kts | 131° |
| 2026-05-06 10:40 | 44.49863 | 14.07541 | 36995 ft | 459 kts | 131° |
| 2026-05-06 10:40 | 44.46168 | 14.14849 | 36984 ft | 460 kts | 131° |
| 2026-05-06 10:41 | 44.42492 | 14.22119 | 36987 ft | 460 kts | 131° |
| 2026-05-06 10:41 | 44.38794 | 14.29421 | 37003 ft | 460 kts | 131° |
| 2026-05-06 10:42 | 44.35091 | 14.36726 | 36971 ft | 460 kts | 130° |
| 2026-05-06 10:42 | 44.31387 | 14.44014 | 36992 ft | 459 kts | 131° |
| 2026-05-06 10:43 | 44.27674 | 14.51279 | 37009 ft | 459 kts | 131° |
| 2026-05-06 10:44 | 44.22128 | 14.62093 | 37015 ft | 458 kts | 131° |
| 2026-05-06 10:44 | 44.18416 | 14.69315 | 37013 ft | 458 kts | 131° |
| 2026-05-06 10:45 | 44.14701 | 14.76529 | 37016 ft | 458 kts | 131° |
| 2026-05-06 10:45 | 44.10983 | 14.83731 | 37015 ft | 458 kts | 131° |
| 2026-05-06 10:46 | 44.07286 | 14.90872 | 37007 ft | 457 kts | 131° |
| 2026-05-06 10:46 | 44.03564 | 14.98039 | 36996 ft | 457 kts | 131° |
| 2026-05-06 10:47 | 43.99846 | 15.05188 | 37023 ft | 455 kts | 131° |
| 2026-05-06 10:47 | 43.96136 | 15.12303 | 37025 ft | 453 kts | 131° |
| 2026-05-06 10:48 | 43.92457 | 15.19314 | 37025 ft | 452 kts | 131° |
| 2026-05-06 10:48 | 43.88691 | 15.26287 | 37028 ft | 451 kts | 133° |
| 2026-05-06 10:49 | 43.84896 | 15.33202 | 37010 ft | 451 kts | 132° |
| 2026-05-06 10:49 | 43.81113 | 15.40139 | 37007 ft | 452 kts | 132° |
| 2026-05-06 10:50 | 43.77327 | 15.47098 | 37012 ft | 452 kts | 132° |
| 2026-05-06 10:50 | 43.73531 | 15.54039 | 37017 ft | 452 kts | 132° |
| 2026-05-06 10:51 | 43.69723 | 15.60963 | 37021 ft | 453 kts | 132° |
| 2026-05-06 10:51 | 43.65936 | 15.67852 | 37010 ft | 453 kts | 132° |
| 2026-05-06 10:52 | 43.62125 | 15.74787 | 37014 ft | 453 kts | 132° |
| 2026-05-06 10:52 | 43.58308 | 15.81711 | 37018 ft | 454 kts | 132° |
| 2026-05-06 10:53 | 43.54474 | 15.88630 | 37023 ft | 454 kts | 132° |
| 2026-05-06 10:53 | 43.50644 | 15.95545 | 37035 ft | 454 kts | 132° |
| 2026-05-06 10:54 | 43.46795 | 16.02450 | 37015 ft | 454 kts | 131° |
| 2026-05-06 10:54 | 43.42949 | 16.09339 | 37026 ft | 454 kts | 131° |
| 2026-05-06 10:55 | 43.39130 | 16.16180 | 37032 ft | 454 kts | 131° |
| 2026-05-06 10:55 | 43.35278 | 16.23073 | 37036 ft | 454 kts | 131° |
| 2026-05-06 10:56 | 43.31412 | 16.29960 | 37039 ft | 454 kts | 131° |
| 2026-05-06 10:56 | 43.27548 | 16.36821 | 37050 ft | 454 kts | 131° |
| 2026-05-06 10:57 | 43.23681 | 16.43677 | 37067 ft | 455 kts | 131° |
| 2026-05-06 10:57 | 43.19828 | 16.50500 | 37068 ft | 456 kts | 131° |
| 2026-05-06 10:58 | 43.15938 | 16.57369 | 37078 ft | 456 kts | 131° |
| 2026-05-06 10:58 | 43.12035 | 16.64239 | 37090 ft | 457 kts | 132° |
| 2026-05-06 10:59 | 43.08131 | 16.71090 | 37070 ft | 457 kts | 131° |
| 2026-05-06 10:59 | 43.04221 | 16.77937 | 37074 ft | 457 kts | 131° |
| 2026-05-06 11:00 | 43.00315 | 16.84782 | 37062 ft | 457 kts | 131° |
| 2026-05-06 11:00 | 42.96393 | 16.91619 | 37069 ft | 457 kts | 131° |
| 2026-05-06 11:01 | 42.92465 | 16.98445 | 37064 ft | 457 kts | 131° |
| 2026-05-06 11:01 | 42.88566 | 17.05228 | 37062 ft | 457 kts | 131° |
| 2026-05-06 11:02 | 42.84637 | 17.12054 | 37064 ft | 458 kts | 131° |
| 2026-05-06 11:02 | 42.80699 | 17.18875 | 37074 ft | 458 kts | 131° |
| 2026-05-06 11:03 | 42.76751 | 17.25676 | 37077 ft | 458 kts | 132° |
| 2026-05-06 11:03 | 42.72795 | 17.32473 | 37079 ft | 458 kts | 132° |
| 2026-05-06 11:04 | 42.68830 | 17.39263 | 37079 ft | 458 kts | 132° |
| 2026-05-06 11:04 | 42.64864 | 17.46054 | 37068 ft | 459 kts | 131° |
| 2026-05-06 11:05 | 42.60910 | 17.52820 | 37077 ft | 459 kts | 132° |
| 2026-05-06 11:05 | 42.56929 | 17.59606 | 37084 ft | 460 kts | 132° |
| 2026-05-06 11:06 | 42.52943 | 17.66382 | 37095 ft | 460 kts | 132° |
| 2026-05-06 11:06 | 42.48952 | 17.73160 | 37095 ft | 460 kts | 132° |
| 2026-05-06 11:07 | 42.44957 | 17.79934 | 37092 ft | 460 kts | 132° |
| 2026-05-06 11:07 | 42.40981 | 17.86656 | 37092 ft | 461 kts | 132° |
| 2026-05-06 11:08 | 42.36966 | 17.93422 | 37109 ft | 461 kts | 132° |
| 2026-05-06 11:08 | 42.32948 | 18.00186 | 37110 ft | 461 kts | 132° |
| 2026-05-06 11:09 | 42.28926 | 18.06937 | 37113 ft | 461 kts | 132° |
| 2026-05-06 11:09 | 42.24896 | 18.13667 | 37120 ft | 461 kts | 132° |
| 2026-05-06 11:10 | 42.20861 | 18.20401 | 37116 ft | 461 kts | 132° |
| 2026-05-06 11:10 | 42.16831 | 18.27133 | 37111 ft | 461 kts | 132° |
| 2026-05-06 11:11 | 42.12821 | 18.33806 | 37111 ft | 461 kts | 132° |
| 2026-05-06 11:11 | 42.08776 | 18.40516 | 37117 ft | 461 kts | 132° |
| 2026-05-06 11:12 | 42.04729 | 18.47209 | 37116 ft | 461 kts | 132° |
| 2026-05-06 11:12 | 42.01037 | 18.54279 | 37114 ft | 466 kts | 119° |
| 2026-05-06 11:13 | 41.98535 | 18.62360 | 37122 ft | 468 kts | 114° |
| 2026-05-06 11:13 | 41.96098 | 18.70471 | 37119 ft | 468 kts | 114° |
| 2026-05-06 11:14 | 41.93664 | 18.78518 | 37128 ft | 468 kts | 114° |
| 2026-05-06 11:14 | 41.91210 | 18.86624 | 37133 ft | 468 kts | 114° |
| 2026-05-06 11:15 | 41.88747 | 18.94716 | 37132 ft | 469 kts | 114° |
| 2026-05-06 11:15 | 41.86277 | 19.02827 | 37135 ft | 469 kts | 114° |
| 2026-05-06 11:16 | 41.83826 | 19.10882 | 37135 ft | 469 kts | 114° |
| 2026-05-06 11:16 | 41.81349 | 19.18977 | 37133 ft | 469 kts | 114° |
| 2026-05-06 11:17 | 41.78843 | 19.27043 | 37125 ft | 468 kts | 117° |
| 2026-05-06 11:17 | 41.75276 | 19.34243 | 37119 ft | 462 kts | 135° |
| 2026-05-06 11:18 | 41.70693 | 19.40260 | 37120 ft | 461 kts | 139° |
| 2026-05-06 11:18 | 41.66102 | 19.46248 | 37118 ft | 461 kts | 138° |
| 2026-05-06 11:19 | 41.61501 | 19.52241 | 37112 ft | 462 kts | 138° |
| 2026-05-06 11:19 | 41.56881 | 19.58208 | 37112 ft | 462 kts | 139° |
| 2026-05-06 11:20 | 41.52293 | 19.64136 | 37115 ft | 462 kts | 138° |
| 2026-05-06 11:20 | 41.47677 | 19.70105 | 37120 ft | 462 kts | 139° |
| 2026-05-06 11:21 | 41.43052 | 19.76059 | 37124 ft | 462 kts | 139° |
| 2026-05-06 11:21 | 41.38417 | 19.81997 | 37122 ft | 462 kts | 139° |
| 2026-05-06 11:22 | 41.33783 | 19.87935 | 37118 ft | 463 kts | 139° |
| 2026-05-06 11:22 | 41.29145 | 19.93872 | 37120 ft | 463 kts | 139° |
| 2026-05-06 11:23 | 41.24493 | 19.99799 | 37106 ft | 463 kts | 139° |
| 2026-05-06 11:23 | 41.19849 | 20.05717 | 37105 ft | 463 kts | 139° |
| 2026-05-06 11:24 | 41.15194 | 20.11642 | 37112 ft | 463 kts | 139° |
| 2026-05-06 11:24 | 41.10565 | 20.17511 | 37109 ft | 463 kts | 139° |
| 2026-05-06 11:25 | 41.05897 | 20.23411 | 37099 ft | 464 kts | 139° |
| 2026-05-06 11:25 | 41.01224 | 20.29310 | 37102 ft | 464 kts | 139° |
| 2026-05-06 11:26 | 40.96549 | 20.35209 | 37106 ft | 464 kts | 139° |
| 2026-05-06 11:26 | 40.91870 | 20.41099 | 37104 ft | 464 kts | 139° |
| 2026-05-06 11:27 | 40.87182 | 20.46982 | 37105 ft | 464 kts | 139° |
| 2026-05-06 11:27 | 40.82484 | 20.52862 | 37091 ft | 466 kts | 139° |
| 2026-05-06 11:28 | 40.78571 | 20.57753 | 37083 ft | 467 kts | 139° |
| 2026-05-06 11:28 | 40.73073 | 20.64601 | 37085 ft | 468 kts | 139° |
| 2026-05-06 11:29 | 40.69108 | 20.69538 | 37085 ft | 468 kts | 139° |
| 2026-05-06 11:29 | 40.64399 | 20.75390 | 37087 ft | 468 kts | 139° |
| 2026-05-06 11:30 | 40.59653 | 20.81271 | 37096 ft | 469 kts | 139° |
| 2026-05-06 11:30 | 40.54898 | 20.87155 | 37069 ft | 470 kts | 139° |
| 2026-05-06 11:30 | 40.52547 | 20.90151 | 36802 ft | 471 kts | 134° |
| 2026-05-06 11:31 | 40.50500 | 20.93520 | 36232 ft | 474 kts | 124° |
| 2026-05-06 11:31 | 40.48885 | 20.97306 | 35517 ft | 478 kts | 114° |
| 2026-05-06 11:31 | 40.47751 | 21.01427 | 34701 ft | 483 kts | 104° |
| 2026-05-06 11:31 | 40.47138 | 21.05781 | 33806 ft | 489 kts | 96° |
| 2026-05-06 11:32 | 40.46745 | 21.10238 | 32885 ft | 493 kts | 96° |
| 2026-05-06 11:32 | 40.46332 | 21.14735 | 31933 ft | 497 kts | 96° |
| 2026-05-06 11:32 | 40.45904 | 21.19261 | 30955 ft | 502 kts | 96° |
| 2026-05-06 11:32 | 40.45468 | 21.23824 | 29951 ft | 506 kts | 96° |
| 2026-05-06 11:33 | 40.45147 | 21.28440 | 28943 ft | 506 kts | 89° |
| 2026-05-06 11:33 | 40.45195 | 21.33004 | 28450 ft | 496 kts | 87° |
| 2026-05-06 11:33 | 40.45246 | 21.37512 | 27754 ft | 492 kts | 87° |
| 2026-05-06 11:33 | 40.45280 | 21.41977 | 27086 ft | 486 kts | 88° |
| 2026-05-06 11:34 | 40.45305 | 21.46383 | 26415 ft | 476 kts | 88° |
| 2026-05-06 11:34 | 40.45327 | 21.50645 | 25794 ft | 462 kts | 87° |
| 2026-05-06 11:34 | 40.45354 | 21.54803 | 25167 ft | 460 kts | 87° |
| 2026-05-06 11:34 | 40.45386 | 21.58994 | 24560 ft | 458 kts | 87° |
| 2026-05-06 11:35 | 40.45420 | 21.63164 | 23939 ft | 456 kts | 87° |
| 2026-05-06 11:35 | 40.45454 | 21.67319 | 23266 ft | 453 kts | 87° |
| 2026-05-06 11:35 | 40.45485 | 21.71437 | 22657 ft | 449 kts | 87° |
| 2026-05-06 11:35 | 40.45513 | 21.75511 | 22079 ft | 444 kts | 87° |
| 2026-05-06 11:36 | 40.45538 | 21.79545 | 21508 ft | 439 kts | 87° |
| 2026-05-06 11:36 | 40.45560 | 21.83531 | 20962 ft | 434 kts | 87° |
| 2026-05-06 11:36 | 40.45581 | 21.87479 | 20426 ft | 430 kts | 87° |
| 2026-05-06 11:36 | 40.45602 | 21.91388 | 19901 ft | 425 kts | 88° |
| 2026-05-06 11:37 | 40.45621 | 21.95256 | 19380 ft | 422 kts | 88° |
| 2026-05-06 11:37 | 40.45638 | 21.99095 | 18854 ft | 419 kts | 88° |
| 2026-05-06 11:37 | 40.45653 | 22.02906 | 18316 ft | 416 kts | 88° |
| 2026-05-06 11:37 | 40.45666 | 22.06685 | 17729 ft | 412 kts | 88° |
| 2026-05-06 11:38 | 40.45678 | 22.10430 | 17169 ft | 408 kts | 88° |
| 2026-05-06 11:38 | 40.45692 | 22.14136 | 16612 ft | 404 kts | 88° |
| 2026-05-06 11:38 | 40.45705 | 22.17749 | 16045 ft | 387 kts | 88° |
| 2026-05-06 11:38 | 40.45715 | 22.21228 | 15519 ft | 379 kts | 88° |
| 2026-05-06 11:39 | 40.45725 | 22.24677 | 14958 ft | 378 kts | 88° |
| 2026-05-06 11:39 | 40.45732 | 22.28119 | 14409 ft | 377 kts | 88° |
| 2026-05-06 11:39 | 40.45739 | 22.31553 | 13855 ft | 376 kts | 88° |
| 2026-05-06 11:39 | 40.45742 | 22.34925 | 13383 ft | 370 kts | 89° |
| 2026-05-06 11:40 | 40.45742 | 22.38236 | 13257 ft | 356 kts | 89° |
| 2026-05-06 11:40 | 40.45743 | 22.41430 | 13121 ft | 343 kts | 89° |
| 2026-05-06 11:40 | 40.45745 | 22.44503 | 12982 ft | 327 kts | 89° |
| 2026-05-06 11:40 | 40.45746 | 22.47390 | 12855 ft | 307 kts | 88° |
| 2026-05-06 11:41 | 40.45746 | 22.50158 | 12728 ft | 299 kts | 88° |
| 2026-05-06 11:41 | 40.45793 | 22.52859 | 12525 ft | 292 kts | 79° |
| 2026-05-06 11:41 | 40.46458 | 22.55299 | 12450 ft | 282 kts | 54° |
| 2026-05-06 11:41 | 40.47778 | 22.57165 | 12205 ft | 280 kts | 32° |
| 2026-05-06 11:42 | 40.49558 | 22.58156 | 11798 ft | 278 kts | 7° |
| 2026-05-06 11:42 | 40.51466 | 22.58565 | 11442 ft | 279 kts | 8° |
| 2026-05-06 11:42 | 40.53354 | 22.59097 | 11204 ft | 277 kts | 11° |
| 2026-05-06 11:42 | 40.55187 | 22.59774 | 10887 ft | 278 kts | 15° |
| 2026-05-06 11:43 | 40.57016 | 22.60615 | 10562 ft | 279 kts | 19° |
| 2026-05-06 11:43 | 40.58808 | 22.61608 | 10258 ft | 280 kts | 23° |
| 2026-05-06 11:43 | 40.60556 | 22.62750 | 9976 ft | 281 kts | 27° |
| 2026-05-06 11:44 | 40.63873 | 22.65444 | 9354 ft | 281 kts | 34° |
| 2026-05-06 11:44 | 40.65428 | 22.66993 | 9069 ft | 280 kts | 38° |
| 2026-05-06 11:44 | 40.66915 | 22.68632 | 8791 ft | 278 kts | 41° |
| 2026-05-06 11:44 | 40.68316 | 22.70383 | 8476 ft | 278 kts | 45° |
| 2026-05-06 11:45 | 40.69619 | 22.72260 | 8206 ft | 277 kts | 49° |
| 2026-05-06 11:45 | 40.70822 | 22.74235 | 7932 ft | 275 kts | 53° |
| 2026-05-06 11:45 | 40.71921 | 22.76289 | 7663 ft | 274 kts | 57° |
| 2026-05-06 11:45 | 40.72921 | 22.78425 | 7402 ft | 272 kts | 60° |
| 2026-05-06 11:46 | 40.73822 | 22.80619 | 7028 ft | 275 kts | 64° |
| 2026-05-06 11:46 | 40.74649 | 22.82961 | 6291 ft | 286 kts | 68° |
| 2026-05-06 11:46 | 40.75375 | 22.85425 | 5525 ft | 290 kts | 72° |
| 2026-05-06 11:46 | 40.75726 | 22.88026 | 4793 ft | 290 kts | 97° |
| 2026-05-06 11:47 | 40.74996 | 22.90395 | 4357 ft | 277 kts | 131° |
| 2026-05-06 11:47 | 40.73486 | 22.91736 | 4017 ft | 261 kts | 163° |
| 2026-05-06 11:47 | 40.71738 | 22.92165 | 3687 ft | 251 kts | 175° |
| 2026-05-06 11:47 | 40.70049 | 22.92320 | 3510 ft | 233 kts | 176° |
| 2026-05-06 11:48 | 40.68514 | 22.92445 | 3507 ft | 210 kts | 176° |
| 2026-05-06 11:48 | 40.67129 | 22.92557 | 3496 ft | 189 kts | 176° |
| 2026-05-06 11:48 | 40.65824 | 22.92660 | 3025 ft | 190 kts | 176° |
| 2026-05-06 11:48 | 40.64552 | 22.92784 | 2837 ft | 177 kts | 173° |
| 2026-05-06 11:49 | 40.63406 | 22.93001 | 2764 ft | 154 kts | 168° |
| 2026-05-06 11:49 | 40.62377 | 22.93371 | 2532 ft | 149 kts | 162° |
| 2026-05-06 11:49 | 40.61417 | 22.93821 | 2179 ft | 145 kts | 158° |
| 2026-05-06 11:49 | 40.60471 | 22.94283 | 1718 ft | 143 kts | 159° |
| 2026-05-06 11:50 | 40.59556 | 22.94693 | 1603 ft | 139 kts | 163° |
| 2026-05-06 11:50 | 40.58626 | 22.95014 | 1343 ft | 138 kts | 167° |
| 2026-05-06 11:50 | 40.57671 | 22.95295 | 970 ft | 141 kts | 166° |
| 2026-05-06 11:50 | 40.56727 | 22.95590 | 793 ft | 139 kts | 166° |
| 2026-05-06 11:51 | 40.55799 | 22.95895 | 585 ft | 137 kts | 165° |
| 2026-05-06 11:51 | 40.54869 | 22.96198 | 468 ft | 140 kts | 168° |
| 2026-05-06 11:51 | 40.53932 | 22.96493 | 272 ft | 138 kts | 166° |
| 2026-05-06 11:51 | 40.53006 | 22.96770 | 70 ft | 136 kts | 168° |
| 2026-05-06 11:52 | 40.52160 | 22.97028 | 31 ft | 97 kts | 167° |
| 2026-05-06 11:52 | 40.51758 | 22.97161 | 29 ft | 42 kts | 165° |
| 2026-05-06 11:52 | 40.51569 | 22.97229 | 30 ft | 23 kts | 156° |
| 2026-05-06 11:52 | 40.51527 | 22.97384 | 29 ft | 16 kts | 46° |
| 2026-05-06 11:53 | 40.51640 | 22.97386 | 29 ft | 18 kts | 347° |
| 2026-05-06 11:53 | 40.51767 | 22.97346 | 29 ft | 20 kts | 347° |
| 2026-05-06 11:53 | 40.51900 | 22.97306 | 26 ft | 21 kts | 347° |
| 2026-05-06 11:53 | 40.52048 | 22.97260 | 28 ft | 22 kts | 346° |
| 2026-05-06 11:54 | 40.52207 | 22.97209 | 28 ft | 25 kts | 346° |
| 2026-05-06 11:54 | 40.52318 | 22.97173 | 28 ft | 14 kts | 346° |
| 2026-05-06 11:54 | 40.52389 | 22.97230 | 28 ft | 13 kts | 75° |
| 2026-05-06 11:54 | 40.52404 | 22.97328 | 28 ft | 12 kts | 94° |
| 2026-05-06 11:55 | 40.52353 | 22.97414 | 28 ft | 9 kts | 136° |
| 2026-05-06 11:55 | 40.52349 | 22.97458 | 28 ft | 5 kts | 69° |
| 2026-05-06 11:55 | 40.52367 | 22.97489 | 28 ft | 3 kts | 46° |
| 2026-05-06 11:55 | 40.52376 | 22.97500 | 28 ft | 0 kts | 45° |